createdAt,value
2023-02-04T00:01:35.287Z,99580.25
2023-02-04T00:04:08.479Z,99571.06
2023-02-04T00:06:41.619Z,99570.28
2023-02-04T00:09:17.007Z,99568.00
2023-02-04T00:11:51.068Z,99566.56
2023-02-04T00:14:24.870Z,99566.16
2023-02-04T00:16:59.154Z,99563.44
2023-02-04T00:19:32.790Z,99553.91
2023-02-04T00:22:07.183Z,99555.50
2023-02-04T00:24:43.065Z,99540.97
2023-02-04T00:27:16.824Z,99554.13
2023-02-04T00:29:50.011Z,99540.28
2023-02-04T00:32:23.460Z,99543.06
2023-02-04T00:34:57.036Z,99541.56
2023-02-04T00:37:30.198Z,99532.53
2023-02-04T00:40:05.057Z,99528.63
2023-02-04T00:42:38.276Z,99533.56
2023-02-04T00:45:12.448Z,99530.53
2023-02-04T00:47:45.778Z,99525.41
2023-02-04T00:50:19.418Z,99525.41
2023-02-04T00:52:52.937Z,99519.84
2023-02-04T00:55:27.792Z,99514.56
2023-02-04T00:58:01.173Z,99509.28
2023-02-04T01:00:34.410Z,99509.13
2023-02-04T01:03:07.894Z,99498.75
2023-02-04T01:05:41.125Z,99504.13
2023-02-04T01:08:14.641Z,99494.13
2023-02-04T01:10:49.529Z,99493.75
2023-02-04T01:13:23.647Z,99498.66
2023-02-04T01:15:57.409Z,99484.56
2023-02-04T01:18:30.725Z,99479.13
2023-02-04T01:21:04.094Z,99480.31
2023-02-04T01:23:37.597Z,99464.63
2023-02-04T01:26:12.661Z,99423.31
2023-02-04T01:28:46.686Z,99456.94
2023-02-04T01:31:20.037Z,99440.47
2023-02-04T01:33:53.460Z,99457.03
2023-02-04T01:36:26.670Z,99462.56
2023-02-04T01:39:01.104Z,99460.44
2023-02-04T01:41:36.305Z,99459.34
2023-02-04T01:44:10.324Z,99462.56
2023-02-04T01:46:43.631Z,99458.66
2023-02-04T01:49:17.506Z,99459.34
2023-02-04T01:51:50.899Z,99449.72
2023-02-04T01:54:24.227Z,99456.44
2023-02-04T01:56:58.949Z,99442.09
2023-02-04T01:59:32.591Z,99447.84
2023-02-04T02:02:39.908Z,99459.34
2023-02-04T02:05:16.848Z,99457.97
2023-02-04T02:07:51.146Z,99448.63
2023-02-04T02:10:25.614Z,99441.66
2023-02-04T02:13:00.889Z,99435.88
2023-02-04T02:15:34.606Z,99432.63
2023-02-04T02:18:07.966Z,99431.63
2023-02-04T02:20:43.714Z,99421.06
2023-02-04T02:23:22.942Z,99412.06
2023-02-04T02:25:57.564Z,99408.47
2023-02-04T02:28:31.086Z,99409.06
2023-02-04T02:31:05.498Z,99401.06
2023-02-04T02:33:39.064Z,99406.81
2023-02-04T02:36:12.386Z,99402.22
2023-02-04T02:38:45.768Z,99396.88
2023-02-04T02:41:20.485Z,99393.03
2023-02-04T02:43:53.911Z,99396.22
2023-02-04T02:46:27.522Z,99384.75
2023-02-04T02:49:01.357Z,99382.59
2023-02-04T02:51:34.700Z,99383.06
2023-02-04T02:54:09.859Z,99378.66
2023-02-04T02:56:44.540Z,99368.84
2023-02-04T02:59:19.264Z,99346.41
2023-02-04T03:01:57.538Z,99351.06
2023-02-04T03:04:33.166Z,99345.09
2023-02-04T03:07:07.095Z,99340.63
2023-02-04T03:09:40.102Z,99336.19
2023-02-04T03:12:15.335Z,99326.84
2023-02-04T03:14:49.064Z,99311.22
2023-02-04T03:17:23.934Z,99314.97
2023-02-04T03:19:57.698Z,99311.50
2023-02-04T03:22:31.068Z,99305.03
2023-02-04T03:25:04.595Z,99301.50
2023-02-04T03:27:39.291Z,99300.59
2023-02-04T03:30:13.068Z,99289.00
2023-02-04T03:32:46.858Z,99287.97
2023-02-04T03:35:20.729Z,99278.66
2023-02-04T03:37:54.012Z,99239.13
2023-02-04T03:40:27.328Z,99264.06
2023-02-04T03:43:02.128Z,99251.63
2023-02-04T03:45:44.882Z,99254.75
2023-02-04T03:48:18.701Z,99249.00
2023-02-04T03:50:52.037Z,99245.72
2023-02-04T03:53:25.620Z,99248.63
2023-02-04T03:55:59.156Z,99236.28
2023-02-04T03:58:34.032Z,99224.72
2023-02-04T04:01:07.702Z,99233.28
2023-02-04T04:03:41.249Z,99229.69
2023-02-04T04:06:14.587Z,99226.13
2023-02-04T04:08:47.905Z,99225.06
2023-02-04T04:11:22.061Z,99213.78
2023-02-04T04:13:57.038Z,99208.44
2023-02-04T04:16:30.744Z,99210.78
2023-02-04T04:19:04.486Z,99198.34
2023-02-04T04:21:38.194Z,99193.25
2023-02-04T04:24:11.406Z,99198.72
2023-02-04T04:26:44.685Z,99200.22
2023-02-04T04:29:19.241Z,99195.97
2023-02-04T04:31:52.573Z,99186.84
2023-02-04T04:34:26.011Z,99179.91
2023-02-04T04:36:59.467Z,99164.94
2023-02-04T04:39:33.073Z,99174.78
2023-02-04T04:42:06.428Z,99177.53
2023-02-04T04:44:41.062Z,99169.47
2023-02-04T04:47:14.321Z,99168.50
2023-02-04T04:49:47.528Z,99162.09
2023-02-04T04:52:20.797Z,99159.66
2023-02-04T04:54:54.339Z,99163.00
2023-02-04T04:57:28.016Z,99159.78
2023-02-04T05:00:02.664Z,99167.41
2023-02-04T05:02:35.975Z,99160.69
2023-02-04T05:05:09.731Z,99177.28
2023-02-04T05:07:43.126Z,99180.94
2023-02-04T05:10:17.274Z,99177.00
2023-02-04T05:12:51.784Z,99176.50
2023-02-04T05:15:27.179Z,99183.50
2023-02-04T05:18:01.007Z,99183.50
2023-02-04T05:20:34.546Z,99186.78
2023-02-04T05:23:08.227Z,99166.25
2023-02-04T05:25:41.508Z,99166.66
2023-02-04T05:28:15.054Z,99162.00
2023-02-04T05:30:51.221Z,99159.38
2023-02-04T05:33:24.477Z,99150.44
2023-02-04T05:35:58.468Z,99150.34
2023-02-04T05:38:31.925Z,99142.34
2023-02-04T05:41:05.304Z,99139.22
2023-02-04T05:43:38.653Z,99140.94
2023-02-04T05:46:13.647Z,99138.59
2023-02-04T05:48:46.848Z,99153.28
2023-02-04T05:51:20.053Z,99142.09
2023-02-04T05:53:53.582Z,99159.25
2023-02-04T05:56:26.951Z,99154.13
2023-02-04T05:59:00.135Z,99156.03
2023-02-04T06:01:34.969Z,99158.06
2023-02-04T06:04:08.799Z,99173.53
2023-02-04T06:06:42.178Z,99173.97
2023-02-04T06:09:15.524Z,99172.75
2023-02-04T06:11:50.894Z,99188.84
2023-02-04T06:14:24.364Z,99177.66
2023-02-04T06:16:59.880Z,99165.63
2023-02-04T06:19:33.688Z,99176.91
2023-02-04T06:22:06.998Z,99170.69
2023-02-04T06:24:40.385Z,99176.91
2023-02-04T06:27:13.698Z,99183.59
2023-02-04T06:29:47.403Z,99180.66
2023-02-04T06:32:22.682Z,99180.56
2023-02-04T06:34:56.170Z,99186.75
2023-02-04T06:37:30.270Z,99192.13
2023-02-04T06:40:03.620Z,99179.91
2023-02-04T06:42:36.795Z,99184.31
2023-02-04T06:45:10.565Z,99185.44
2023-02-04T06:47:45.181Z,99176.59
2023-02-04T06:50:19.373Z,99180.84
2023-02-04T06:52:53.122Z,99171.13
2023-02-04T06:55:26.782Z,99176.22
2023-02-04T06:58:00.205Z,99184.00
2023-02-04T07:00:34.119Z,99185.91
2023-02-04T07:03:09.283Z,99191.00
2023-02-04T07:05:42.730Z,99183.84
2023-02-04T07:08:16.425Z,99189.47
2023-02-04T07:10:50.041Z,99188.94
2023-02-04T07:13:23.592Z,99193.44
2023-02-04T07:15:57.668Z,99191.94
2023-02-04T07:18:32.579Z,99202.97
2023-02-04T07:21:06.425Z,99198.91
2023-02-04T07:23:39.688Z,99199.09
2023-02-04T07:26:13.228Z,99186.09
2023-02-04T07:28:47.165Z,99187.03
2023-02-04T07:31:20.704Z,99185.34
2023-02-04T07:33:55.355Z,99185.91
2023-02-04T07:36:28.541Z,99175.66
2023-02-04T07:39:02.272Z,99176.31
2023-02-04T07:41:35.737Z,99177.06
2023-02-04T07:44:09.449Z,99187.22
2023-02-04T07:46:43.095Z,99196.19
2023-02-04T07:49:18.003Z,99190.50
2023-02-04T07:51:51.439Z,99196.25
2023-02-04T07:54:24.783Z,99194.84
2023-02-04T07:56:57.982Z,99180.41
2023-02-04T07:59:31.675Z,99180.03
2023-02-04T08:02:05.376Z,99178.16
2023-02-04T08:04:40.487Z,99177.00
2023-02-04T08:07:13.876Z,99176.63
2023-02-04T08:09:47.775Z,99170.09
2023-02-04T08:12:21.737Z,99170.09
2023-02-04T08:14:55.428Z,99171.97
2023-02-04T08:17:28.915Z,99172.94
2023-02-04T08:20:04.678Z,99153.03
2023-02-04T08:22:39.125Z,99148.84
2023-02-04T08:25:12.825Z,99142.22
2023-02-04T08:27:46.111Z,99136.63
2023-02-04T08:30:19.718Z,99140.09
2023-02-04T08:32:53.118Z,99133.78
2023-02-04T08:35:28.306Z,99140.19
2023-02-04T08:38:01.464Z,99133.34
2023-02-04T08:40:35.271Z,99129.25
2023-02-04T08:43:08.501Z,99126.28
2023-02-04T08:45:41.957Z,99126.41
2023-02-04T08:48:15.122Z,99136.47
2023-02-04T08:50:49.940Z,99128.22
2023-02-04T08:53:23.444Z,99129.91
2023-02-04T08:55:56.894Z,99124.00
2023-02-04T08:58:30.552Z,99113.22
2023-02-04T09:01:04.005Z,99117.84
2023-02-04T09:03:37.251Z,99124.94
2023-02-04T09:06:12.171Z,99110.31
2023-02-04T09:08:45.814Z,99093.78
2023-02-04T09:11:19.390Z,99100.00
2023-02-04T09:13:55.790Z,99099.16
2023-02-04T09:16:29.555Z,99086.44
2023-02-04T09:19:03.220Z,99077.91
2023-02-04T09:21:37.824Z,99069.78
2023-02-04T09:24:11.308Z,99064.16
2023-02-04T09:26:44.744Z,99065.97
2023-02-04T09:29:17.944Z,99067.66
2023-02-04T09:31:51.408Z,99072.22
2023-02-04T09:34:24.832Z,99073.44
2023-02-04T09:36:59.500Z,99065.34
2023-02-04T09:39:32.756Z,99065.56
2023-02-04T09:42:06.612Z,99061.72
2023-02-04T09:44:40.250Z,99052.31
2023-02-04T09:47:15.706Z,98933.50
2023-02-04T09:49:48.843Z,99037.97
2023-02-04T09:52:24.725Z,99040.09
2023-02-04T09:54:58.092Z,99048.66
2023-02-04T09:57:31.697Z,99038.34
2023-02-04T10:00:09.860Z,99020.53
2023-02-04T10:02:43.340Z,99020.41
2023-02-04T10:05:18.803Z,99022.97
2023-02-04T10:07:53.531Z,99029.97
2023-02-04T10:10:28.642Z,99026.72
2023-02-04T10:13:05.513Z,99017.09
2023-02-04T10:15:39.760Z,99009.97
2023-02-04T10:18:20.572Z,99007.69
2023-02-04T10:20:56.657Z,99004.06
2023-02-04T10:23:31.852Z,99005.75
2023-02-04T10:26:05.683Z,98986.81
2023-02-04T10:28:40.218Z,98991.81
2023-02-04T10:31:30.657Z,98965.94
2023-02-04T10:34:10.755Z,98977.34
2023-02-04T10:36:46.039Z,98958.19
2023-02-04T10:39:22.546Z,98964.41
2023-02-04T10:41:57.606Z,98969.31
2023-02-04T10:44:33.544Z,98966.66
2023-02-04T10:47:09.662Z,98970.28
2023-02-04T10:49:52.425Z,98964.28
2023-02-04T10:52:32.270Z,98954.38
2023-02-04T10:55:11.144Z,98955.88
2023-02-04T10:57:46.732Z,98962.75
2023-02-04T11:00:21.674Z,98953.66
2023-02-04T11:02:59.695Z,98934.91
2023-02-04T11:05:35.281Z,98956.50
2023-02-04T11:08:22.788Z,98951.78
2023-02-04T11:11:00.746Z,98943.56
2023-02-04T11:13:46.091Z,98919.94
2023-02-04T11:16:27.383Z,98933.38
2023-02-04T11:19:02.945Z,98928.78
2023-02-04T11:21:45.994Z,98927.59
2023-02-04T11:24:27.167Z,98926.22
2023-02-04T11:27:10.126Z,98917.94
2023-02-04T11:29:43.392Z,98909.28
2023-02-04T11:32:32.465Z,98883.13
2023-02-04T11:35:33.713Z,98898.16
2023-02-04T11:38:26.400Z,98894.25
2023-02-04T11:41:01.381Z,98908.78
2023-02-04T11:43:37.626Z,98891.84
2023-02-04T11:46:16.260Z,98892.00
2023-02-04T11:48:53.679Z,98890.66
2023-02-04T11:51:32.601Z,98880.84
2023-02-04T11:54:06.646Z,98887.69
2023-02-04T11:56:40.153Z,98819.47
2023-02-04T11:59:17.644Z,98879.88
2023-02-04T12:01:51.316Z,98879.84
2023-02-04T12:04:26.606Z,98869.50
2023-02-04T12:07:01.954Z,98861.97
2023-02-04T12:09:35.728Z,98862.63
2023-02-04T12:12:10.542Z,98858.03
2023-02-04T12:14:46.015Z,98807.31
2023-02-04T12:17:21.691Z,98858.59
2023-02-04T12:19:55.157Z,98855.78
2023-02-04T12:22:28.658Z,98865.44
2023-02-04T12:25:01.896Z,98849.06
2023-02-04T12:27:35.448Z,98852.56
2023-02-04T12:30:12.532Z,98852.97
2023-02-04T12:32:46.052Z,98848.94
2023-02-04T12:35:19.293Z,98855.78
2023-02-04T12:37:52.482Z,98849.50
2023-02-04T12:40:26.203Z,98849.19
2023-02-04T12:42:59.635Z,98866.13
2023-02-04T12:45:35.146Z,98856.03
2023-02-04T12:48:08.642Z,98857.59
2023-02-04T12:50:42.066Z,98849.84
2023-02-04T12:53:15.756Z,98855.19
2023-02-04T12:55:49.544Z,98851.16
2023-02-04T12:58:23.016Z,98865.41
2023-02-04T13:00:57.962Z,98874.22
2023-02-04T13:03:32.612Z,98851.00
2023-02-04T13:06:06.737Z,98853.38
2023-02-04T13:08:40.409Z,98865.13
2023-02-04T13:11:13.658Z,98847.91
2023-02-04T13:13:48.356Z,98854.06
2023-02-04T13:16:24.889Z,98859.66
2023-02-04T13:18:58.516Z,98863.16
2023-02-04T13:21:32.096Z,98869.63
2023-02-04T13:24:05.846Z,98869.06
2023-02-04T13:26:39.236Z,98863.06
2023-02-04T13:29:13.184Z,98860.69
2023-02-04T13:31:48.215Z,98859.00
2023-02-04T13:34:21.633Z,98875.53
2023-02-04T13:36:55.149Z,98868.94
2023-02-04T13:39:28.345Z,98859.72
2023-02-04T13:42:04.200Z,98867.13
2023-02-04T13:44:37.895Z,98866.72
2023-02-04T13:47:12.949Z,98871.31
2023-02-04T13:49:46.772Z,98872.28
2023-02-04T13:52:21.218Z,98877.44
2023-02-04T13:54:56.678Z,98877.00
2023-02-04T13:57:30.996Z,98888.31
2023-02-04T14:00:05.283Z,98876.41
2023-02-04T14:02:40.545Z,98891.13
2023-02-04T14:05:13.892Z,98903.44
2023-02-04T14:07:46.976Z,98898.53
2023-02-04T14:10:23.045Z,98889.28
2023-02-04T14:12:58.604Z,98900.22
2023-02-04T14:15:32.368Z,98903.44
2023-02-04T14:18:07.420Z,98909.06
2023-02-04T14:20:40.726Z,98910.16
2023-02-04T14:23:13.803Z,98915.50
2023-02-04T14:25:47.170Z,98917.44
2023-02-04T14:28:20.518Z,98915.66
2023-02-04T14:30:54.804Z,98907.66
2023-02-04T14:33:29.923Z,98915.75
2023-02-04T14:36:03.359Z,98930.72
2023-02-04T14:38:38.422Z,98902.41
2023-02-04T14:41:16.360Z,98929.38
2023-02-04T14:43:49.977Z,98928.50
2023-02-04T14:46:24.858Z,98946.56
2023-02-04T14:48:59.922Z,98947.91
2023-02-04T14:51:33.432Z,98944.41
2023-02-04T14:54:06.758Z,98951.69
2023-02-04T14:56:40.218Z,98965.50
2023-02-04T14:59:13.527Z,98964.47
2023-02-04T15:01:47.158Z,98975.66
2023-02-04T15:04:22.345Z,98979.75
2023-02-04T15:06:57.600Z,98981.56
2023-02-04T15:09:31.258Z,98980.53
2023-02-04T15:12:06.243Z,98987.31
2023-02-04T15:14:40.219Z,98984.69
2023-02-04T15:17:13.994Z,98984.84
2023-02-04T15:19:49.148Z,98994.66
2023-02-04T15:22:22.468Z,98989.34
2023-02-04T15:24:55.640Z,98996.00
2023-02-04T15:27:29.734Z,98998.16
2023-02-04T15:30:04.119Z,98994.69
2023-02-04T15:32:37.632Z,98999.78
2023-02-04T15:35:12.522Z,99008.72
2023-02-04T15:37:45.884Z,99011.16
2023-02-04T15:40:19.625Z,99011.41
2023-02-04T15:42:53.321Z,99009.97
2023-02-04T15:45:26.679Z,99009.63
2023-02-04T15:48:00.292Z,99009.88
2023-02-04T15:50:35.284Z,99017.94
2023-02-04T15:53:09.448Z,99003.97
2023-02-04T15:55:42.977Z,99017.97
2023-02-04T15:58:16.750Z,99021.59
2023-02-04T16:00:50.047Z,99018.59
2023-02-04T16:03:23.376Z,99023.31
2023-02-04T16:05:57.935Z,99018.22
2023-02-04T16:08:31.985Z,99024.03
2023-02-04T16:11:06.214Z,99032.47
2023-02-04T16:13:39.943Z,99037.28
2023-02-04T16:16:15.735Z,99035.63
2023-02-04T16:18:49.276Z,99046.69
2023-02-04T16:21:24.242Z,99051.03
2023-02-04T16:23:57.473Z,99053.34
2023-02-04T16:26:32.317Z,99057.53
2023-02-04T16:29:05.588Z,99065.59
2023-02-04T16:31:38.889Z,99056.81
2023-02-04T16:34:12.354Z,99060.78
2023-02-04T16:36:47.057Z,99058.97
2023-02-04T16:39:20.361Z,99059.31
2023-02-04T16:41:53.969Z,99060.41
2023-02-04T16:44:27.159Z,99057.53
2023-02-04T16:47:00.454Z,99065.69
2023-02-04T16:49:33.687Z,99074.00
2023-02-04T16:52:08.345Z,99074.75
2023-02-04T16:54:42.431Z,99076.91
2023-02-04T16:57:15.910Z,99085.47
2023-02-04T16:59:49.669Z,99080.03
2023-02-04T17:02:22.884Z,99100.38
2023-02-04T17:04:56.244Z,99093.72
2023-02-04T17:07:30.988Z,99106.03
2023-02-04T17:10:04.657Z,99098.53
2023-02-04T17:12:38.626Z,99101.19
2023-02-04T17:15:13.911Z,99112.34
2023-02-04T17:17:47.511Z,99105.72
2023-02-04T17:20:20.730Z,99123.50
2023-02-04T17:22:56.535Z,99117.63
2023-02-04T17:25:30.126Z,99121.22
2023-02-04T17:28:03.783Z,99124.69
2023-02-04T17:30:37.777Z,99112.41
2023-02-04T17:33:11.248Z,99133.75
2023-02-04T17:35:44.507Z,99135.66
2023-02-04T17:38:19.309Z,99137.94
2023-02-04T17:40:55.014Z,99138.75
2023-02-04T17:43:28.819Z,99144.06
2023-02-04T17:46:02.601Z,99137.19
2023-02-04T17:48:36.026Z,99141.75
2023-02-04T17:51:09.695Z,99143.94
2023-02-04T17:53:44.299Z,99134.41
2023-02-04T17:56:17.699Z,99140.66
2023-02-04T17:58:50.954Z,99128.13
2023-02-04T18:01:25.333Z,99142.69
2023-02-04T18:03:59.649Z,99152.00
2023-02-04T18:06:32.927Z,99151.34
2023-02-04T18:09:15.826Z,99162.81
2023-02-04T18:11:49.500Z,99161.56
2023-02-04T18:14:28.821Z,99171.22
2023-02-04T18:17:07.808Z,99168.16
2023-02-04T18:19:44.466Z,99155.75
2023-02-04T18:22:18.844Z,99169.00
2023-02-04T18:24:53.800Z,99179.19
2023-02-04T18:27:32.271Z,99179.09
2023-02-04T18:30:20.019Z,99193.03
2023-02-04T18:32:55.422Z,99187.88
2023-02-04T18:35:42.859Z,99194.56
2023-02-04T18:38:24.849Z,99192.59
2023-02-04T18:41:10.633Z,99199.78
2023-02-04T18:43:48.237Z,99209.09
2023-02-04T18:46:26.543Z,99205.31
2023-02-04T18:49:08.902Z,99208.94
2023-02-04T18:51:44.838Z,99206.59
2023-02-04T18:54:35.702Z,99213.59
2023-02-04T18:57:35.599Z,99230.00
2023-02-04T19:00:34.667Z,99219.31
2023-02-04T19:03:25.228Z,99221.97
2023-02-04T19:06:00.802Z,99228.09
2023-02-04T19:08:43.913Z,99255.06
2023-02-04T19:11:28.852Z,99243.66
2023-02-04T19:14:13.396Z,99250.53
2023-02-04T19:16:48.075Z,99249.78
2023-02-04T19:19:39.560Z,99257.78
2023-02-04T19:22:19.729Z,99250.28
2023-02-04T19:24:58.681Z,99268.53
2023-02-04T19:27:36.235Z,99266.00
2023-02-04T19:30:46.879Z,99256.94
2023-02-04T19:33:26.779Z,99278.84
2023-02-04T19:36:02.076Z,99283.72
2023-02-04T19:38:41.254Z,99287.22
2023-02-04T19:41:27.857Z,99284.50
2023-02-04T19:44:28.384Z,99281.00
2023-02-04T19:47:29.716Z,99293.94
2023-02-04T19:50:21.770Z,99284.91
2023-02-04T19:53:02.368Z,99281.63
2023-02-04T19:55:38.162Z,99299.25
2023-02-04T19:58:17.933Z,99301.56
2023-02-04T20:00:59.548Z,99305.25
2023-02-04T20:03:38.121Z,99318.06
2023-02-04T20:06:33.527Z,99297.38
2023-02-04T20:09:15.120Z,99328.34
2023-02-04T20:11:58.601Z,99330.25
2023-02-04T20:14:52.483Z,99336.56
2023-02-04T20:17:36.647Z,99315.84
2023-02-04T20:20:27.847Z,99324.97
2023-02-04T20:23:02.331Z,99341.47
2023-02-04T20:25:41.268Z,99334.28
2023-02-04T20:28:45.864Z,99336.75
2023-02-04T20:31:40.008Z,99358.59
2023-02-04T20:34:18.926Z,99358.28
2023-02-04T20:36:55.285Z,99364.59
2023-02-04T20:39:40.799Z,99362.28
2023-02-04T20:42:45.099Z,99368.38
2023-02-04T20:45:33.477Z,99376.97
2023-02-04T20:48:28.694Z,99393.25
2023-02-04T20:51:04.064Z,99386.03
2023-02-04T20:53:40.298Z,99364.41
2023-02-04T20:56:24.430Z,99384.94
2023-02-04T20:59:10.545Z,99380.03
2023-02-04T21:01:45.154Z,99375.50
2023-02-04T21:04:22.209Z,99359.16
2023-02-04T21:06:58.606Z,99357.19
2023-02-04T21:09:37.546Z,99370.03
2023-02-04T21:12:12.832Z,99385.81
2023-02-04T21:14:46.645Z,99369.41
2023-02-04T21:17:19.901Z,99374.25
2023-02-04T21:19:53.572Z,99369.41
2023-02-04T21:22:27.218Z,99366.94
2023-02-04T21:25:02.030Z,99379.00
2023-02-04T21:27:35.256Z,99377.91
2023-02-04T21:30:10.438Z,99375.78
2023-02-04T21:32:43.685Z,99384.00
2023-02-04T21:35:21.377Z,99386.66
2023-02-04T21:37:55.518Z,99388.00
2023-02-04T21:40:30.540Z,99389.28
2023-02-04T21:43:06.385Z,99393.34
2023-02-04T21:45:39.875Z,99379.31
2023-02-04T21:48:14.738Z,99394.09
2023-02-04T21:50:48.204Z,99390.28
2023-02-04T21:53:21.528Z,99389.84
2023-02-04T21:55:57.874Z,99393.94
2023-02-04T21:58:32.240Z,99398.00
2023-02-04T22:01:06.259Z,99392.84
2023-02-04T22:03:40.183Z,99393.53
2023-02-04T22:06:13.571Z,99395.47
2023-02-04T22:08:46.875Z,99395.38
2023-02-04T22:11:21.444Z,99392.00
2023-02-04T22:13:55.133Z,99383.75
2023-02-04T22:16:28.830Z,99382.91
2023-02-04T22:19:02.253Z,99374.41
2023-02-04T22:21:36.406Z,99383.66
2023-02-04T22:24:09.830Z,99377.97
2023-02-04T22:26:44.506Z,99377.13
2023-02-04T22:29:21.705Z,99380.34
2023-02-04T22:31:55.028Z,99381.38
2023-02-04T22:34:28.569Z,99385.44
2023-02-04T22:37:01.878Z,99382.56
2023-02-04T22:39:35.301Z,99372.69
2023-02-04T22:42:09.857Z,99371.00
2023-02-04T22:44:43.203Z,99378.63
2023-02-04T22:47:16.563Z,99359.69
2023-02-04T22:49:49.775Z,99372.16
2023-02-04T22:52:24.449Z,99371.16
2023-02-04T22:54:58.333Z,99373.88
2023-02-04T22:57:33.040Z,99380.06
2023-02-04T23:00:10.171Z,99365.19
2023-02-04T23:02:43.680Z,99379.34
2023-02-04T23:05:17.083Z,99387.34
2023-02-04T23:07:50.565Z,99385.56
2023-02-04T23:10:24.246Z,99397.78
2023-02-04T23:13:01.443Z,99398.66
2023-02-04T23:15:35.603Z,99399.50
2023-02-04T23:18:09.487Z,99402.81
2023-02-04T23:20:43.020Z,99399.34
2023-02-04T23:23:17.616Z,99404.44
2023-02-04T23:25:51.403Z,99413.78
2023-02-04T23:28:26.259Z,99413.50
2023-02-04T23:30:59.920Z,99422.47
2023-02-04T23:33:33.059Z,99425.69
2023-02-04T23:36:07.282Z,99437.41
2023-02-04T23:38:40.465Z,99438.94
2023-02-04T23:41:13.925Z,99444.47
2023-02-04T23:43:48.859Z,99423.59
2023-02-04T23:46:22.080Z,99444.22
2023-02-04T23:48:55.330Z,99453.81
2023-02-04T23:51:28.584Z,99441.66
2023-02-04T23:54:02.246Z,99474.97
2023-02-04T23:56:35.524Z,99473.50
2023-02-04T23:59:10.469Z,99477.84
